createdAt,value
2019-02-27T00:00:20.277Z,1.00
2019-02-27T00:02:48.673Z,1.55
2019-02-27T00:05:17.076Z,1.00
2019-02-27T00:07:45.480Z,0.90
2019-02-27T00:10:14.327Z,1.02
2019-02-27T00:12:42.717Z,1.20
2019-02-27T00:15:11.175Z,1.30
2019-02-27T00:17:39.581Z,1.32
2019-02-27T00:20:08.220Z,1.00
2019-02-27T00:22:36.296Z,1.10
2019-02-27T00:25:04.925Z,1.15
2019-02-27T00:27:33.336Z,1.02
2019-02-27T00:30:04.598Z,1.00
2019-02-27T00:32:31.872Z,1.42
2019-02-27T00:35:00.348Z,0.95
2019-02-27T00:37:28.847Z,1.50
2019-02-27T00:39:57.248Z,1.10
2019-02-27T00:42:33.308Z,1.27
2019-02-27T00:44:55.778Z,1.07
2019-02-27T00:47:24.184Z,1.07
2019-02-27T00:49:52.576Z,0.93
2019-02-27T00:52:20.986Z,1.10
2019-02-27T00:54:49.380Z,1.20
2019-02-27T00:57:20.609Z,1.10
2019-02-27T00:59:47.982Z,1.35
2019-02-27T01:02:19.926Z,0.90
2019-02-27T01:04:46.180Z,1.10
2019-02-27T01:07:20.183Z,0.75
2019-02-27T01:09:46.244Z,1.47
2019-02-27T01:12:14.659Z,1.50
2019-02-27T01:14:43.054Z,1.40
2019-02-27T01:17:11.136Z,0.82
2019-02-27T01:19:39.538Z,1.10
2019-02-27T01:22:07.941Z,1.10
2019-02-27T01:24:36.339Z,1.12
2019-02-27T01:27:05.434Z,1.00
2019-02-27T01:29:33.928Z,1.00
2019-02-27T01:32:02.350Z,1.00
2019-02-27T01:34:30.748Z,0.93
2019-02-27T01:36:59.164Z,1.00
2019-02-27T01:39:27.564Z,1.10
2019-02-27T01:42:14.976Z,1.05
2019-02-27T01:44:44.031Z,0.88
2019-02-27T01:47:13.945Z,0.85
2019-02-27T01:49:42.333Z,0.60
2019-02-27T01:52:10.736Z,0.90
2019-02-27T01:54:39.124Z,0.90
2019-02-27T01:57:07.210Z,0.98
2019-02-27T01:59:35.614Z,0.70
2019-02-27T02:02:04.185Z,0.80
2019-02-27T02:04:32.863Z,1.10
2019-02-27T02:07:01.273Z,0.82
2019-02-27T02:09:32.189Z,0.80
2019-02-27T02:12:07.691Z,1.02
2019-02-27T02:14:45.513Z,0.78
2019-02-27T02:17:22.685Z,0.70
2019-02-27T02:20:20.763Z,0.80
2019-02-27T02:23:06.874Z,0.80
2019-02-27T02:25:43.825Z,0.60
2019-02-27T02:28:48.244Z,0.60
2019-02-27T02:31:41.147Z,0.50
2019-02-27T02:34:39.775Z,0.65
2019-02-27T02:37:13.368Z,0.90
2019-02-27T02:39:59.702Z,0.62
2019-02-27T02:42:35.272Z,0.70
2019-02-27T02:45:26.243Z,0.65
2019-02-27T02:48:15.245Z,0.70
2019-02-27T02:51:01.977Z,0.68
2019-02-27T02:54:01.883Z,0.80
2019-02-27T02:56:31.454Z,1.00
2019-02-27T02:59:36.212Z,1.00
2019-02-27T03:02:16.457Z,0.53
2019-02-27T03:04:58.034Z,0.60
2019-02-27T03:07:44.692Z,0.70
2019-02-27T03:10:26.206Z,0.67
2019-02-27T03:13:05.791Z,0.72
2019-02-27T03:15:36.157Z,0.80
2019-02-27T03:18:26.118Z,0.53
2019-02-27T03:21:07.901Z,0.77
2019-02-27T03:23:43.224Z,0.50
2019-02-27T03:26:23.308Z,0.82
2019-02-27T03:28:54.777Z,0.70
2019-02-27T03:31:31.866Z,0.70
2019-02-27T03:34:25.602Z,0.63
2019-02-27T03:37:13.143Z,0.65
2019-02-27T03:40:11.810Z,0.40
2019-02-27T03:42:49.024Z,0.90
2019-02-27T03:45:18.641Z,0.77
2019-02-27T03:48:11.272Z,0.80
2019-02-27T03:50:49.872Z,1.13
2019-02-27T03:53:30.523Z,0.80
2019-02-27T03:56:27.658Z,1.00
2019-02-27T03:59:15.775Z,0.73
2019-02-27T04:01:57.251Z,0.90
2019-02-27T04:04:49.549Z,0.97
2019-02-27T04:07:21.913Z,0.77
2019-02-27T04:09:54.824Z,0.80
2019-02-27T04:12:20.208Z,0.95
2019-02-27T04:14:48.600Z,1.03
2019-02-27T04:17:18.605Z,0.60
2019-02-27T04:19:47.006Z,0.60
2019-02-27T04:22:15.413Z,0.40
2019-02-27T04:24:43.481Z,0.60
2019-02-27T04:27:11.588Z,0.53
2019-02-27T04:29:41.077Z,0.73
2019-02-27T04:32:12.445Z,0.60
2019-02-27T04:34:39.885Z,0.77
2019-02-27T04:37:07.956Z,0.70
2019-02-27T04:39:38.277Z,0.53
2019-02-27T04:42:06.476Z,0.80
2019-02-27T04:44:35.904Z,0.90
2019-02-27T04:47:05.005Z,0.70
2019-02-27T04:49:34.791Z,0.40
2019-02-27T04:52:03.527Z,0.70
2019-02-27T04:54:31.917Z,0.53
2019-02-27T04:57:00.316Z,0.80
2019-02-27T04:59:28.711Z,0.87
2019-02-27T05:01:57.118Z,0.40
2019-02-27T05:04:25.504Z,0.63
2019-02-27T05:06:53.586Z,0.80
2019-02-27T05:09:21.980Z,0.90
2019-02-27T05:11:50.060Z,0.60
2019-02-27T05:14:18.448Z,0.70
2019-02-27T05:16:47.309Z,0.70
2019-02-27T05:19:16.299Z,0.60
2019-02-27T05:21:44.688Z,0.73
2019-02-27T05:24:13.096Z,0.73
2019-02-27T05:26:41.692Z,0.70
2019-02-27T05:29:10.095Z,0.83
2019-02-27T05:31:38.488Z,0.90
2019-02-27T05:34:06.889Z,0.67
2019-02-27T05:36:35.281Z,1.10
2019-02-27T05:39:04.863Z,0.70
2019-02-27T05:41:33.779Z,0.80
2019-02-27T05:44:03.875Z,0.80
2019-02-27T05:46:31.956Z,0.70
2019-02-27T05:49:00.355Z,0.77
2019-02-27T05:51:28.428Z,0.90
2019-02-27T05:53:58.491Z,1.00
2019-02-27T05:56:26.956Z,1.70
2019-02-27T05:58:56.340Z,2.50
2019-02-27T06:01:25.382Z,1.20
2019-02-27T06:03:53.787Z,1.10
2019-02-27T06:06:22.182Z,1.50
2019-02-27T06:08:50.585Z,1.13
2019-02-27T06:11:38.316Z,1.07
2019-02-27T06:14:06.736Z,0.90
2019-02-27T06:16:37.551Z,0.73
2019-02-27T06:19:05.264Z,0.80
2019-02-27T06:21:33.648Z,1.07
2019-02-27T06:24:02.080Z,1.00
2019-02-27T06:26:32.458Z,0.60
2019-02-27T06:29:00.643Z,1.10
2019-02-27T06:31:29.040Z,0.90
2019-02-27T06:33:59.026Z,0.80
2019-02-27T06:36:27.676Z,0.83
2019-02-27T06:39:00.120Z,0.87
2019-02-27T06:41:25.852Z,0.80
2019-02-27T06:43:54.260Z,0.70
2019-02-27T06:46:22.684Z,1.00
2019-02-27T06:48:51.087Z,1.07
2019-02-27T06:51:19.494Z,1.20
2019-02-27T06:53:47.919Z,1.20
2019-02-27T06:56:16.315Z,0.83
2019-02-27T06:58:50.100Z,0.73
2019-02-27T07:01:17.977Z,0.90
2019-02-27T07:03:46.382Z,0.72
2019-02-27T07:06:14.788Z,0.70
2019-02-27T07:08:43.237Z,0.68
2019-02-27T07:11:11.673Z,0.55
2019-02-27T07:13:40.076Z,0.53
2019-02-27T07:16:08.472Z,1.07
2019-02-27T07:18:41.497Z,0.90
2019-02-27T07:21:07.065Z,0.70
2019-02-27T07:23:35.473Z,0.62
2019-02-27T07:26:03.869Z,1.00
2019-02-27T07:28:32.268Z,0.95
2019-02-27T07:31:00.688Z,1.15
2019-02-27T07:33:29.071Z,1.00
2019-02-27T07:35:57.476Z,0.88
2019-02-27T07:38:25.872Z,0.90
2019-02-27T07:40:54.012Z,0.70
2019-02-27T07:43:22.423Z,0.95
2019-02-27T07:45:50.831Z,0.70
2019-02-27T07:48:19.225Z,0.60
2019-02-27T07:50:49.197Z,1.10
2019-02-27T07:53:18.339Z,0.78
2019-02-27T07:55:47.510Z,0.50
2019-02-27T07:58:15.627Z,0.80
2019-02-27T08:00:44.048Z,0.70
2019-02-27T08:03:13.129Z,0.60
2019-02-27T08:05:41.315Z,0.85
2019-02-27T08:08:09.716Z,0.68
2019-02-27T08:10:37.796Z,0.80
2019-02-27T08:13:06.205Z,0.95
2019-02-27T08:15:34.647Z,1.10
2019-02-27T08:18:03.086Z,0.70
2019-02-27T08:20:31.736Z,0.90
2019-02-27T08:23:00.144Z,0.85
2019-02-27T08:25:28.553Z,0.98
2019-02-27T08:27:56.955Z,0.80
2019-02-27T08:30:26.707Z,0.82
2019-02-27T08:32:55.221Z,1.20
2019-02-27T08:35:23.627Z,1.12
2019-02-27T08:37:52.035Z,1.00
2019-02-27T08:40:24.404Z,2.47
2019-02-27T08:42:50.569Z,1.00
2019-02-27T08:45:20.949Z,1.10
2019-02-27T08:47:49.637Z,1.00
2019-02-27T08:50:20.460Z,1.30
2019-02-27T08:55:22.606Z,1.07
2019-02-27T08:57:55.971Z,1.30
2019-02-27T09:00:25.636Z,1.47
2019-02-27T09:02:55.658Z,1.87
2019-02-27T09:05:24.700Z,1.50
2019-02-27T09:07:53.094Z,1.52
2019-02-27T09:10:26.310Z,1.67
2019-02-27T09:13:04.356Z,1.50
2019-02-27T09:15:24.142Z,1.37
2019-02-27T09:17:52.535Z,1.57
2019-02-27T09:20:21.721Z,1.80
2019-02-27T09:22:50.270Z,1.60
2019-02-27T09:25:23.560Z,1.60
2019-02-27T09:27:48.744Z,1.72
2019-02-27T09:30:19.663Z,1.87
2019-02-27T09:32:48.060Z,1.90
2019-02-27T09:35:16.476Z,1.70
2019-02-27T09:37:44.887Z,1.92
2019-02-27T09:40:22.341Z,1.80
2019-02-27T09:42:52.902Z,1.85
2019-02-27T09:45:24.166Z,1.90
2019-02-27T09:47:52.556Z,2.12
2019-02-27T09:50:26.510Z,2.08
2019-02-27T09:52:54.976Z,2.05
2019-02-27T09:55:23.383Z,2.00
2019-02-27T09:57:51.779Z,2.42
2019-02-27T10:00:29.037Z,2.25
2019-02-27T10:02:58.257Z,2.55
2019-02-27T10:05:27.057Z,2.00
2019-02-27T10:07:57.398Z,2.08
2019-02-27T10:10:25.688Z,2.90
2019-02-27T10:12:54.216Z,2.92
2019-02-27T10:15:25.127Z,2.92
2019-02-27T10:17:52.492Z,2.85
2019-02-27T10:20:20.898Z,2.50
2019-02-27T10:22:49.380Z,2.80
2019-02-27T10:25:17.791Z,3.22
2019-02-27T10:27:47.314Z,3.00
2019-02-27T10:30:17.085Z,3.83
2019-02-27T10:32:45.497Z,3.12
2019-02-27T10:35:15.838Z,3.25
2019-02-27T10:37:49.699Z,3.33
2019-02-27T10:40:23.900Z,3.33
2019-02-27T10:42:52.328Z,3.77
2019-02-27T10:45:20.717Z,2.62
2019-02-27T10:47:49.128Z,2.67
2019-02-27T10:50:17.602Z,2.85
2019-02-27T10:52:46.009Z,2.70
2019-02-27T10:55:15.614Z,2.75
2019-02-27T10:57:44.025Z,3.42
2019-02-27T11:00:28.351Z,3.40
2019-02-27T11:02:56.936Z,2.87
2019-02-27T11:05:27.275Z,4.00
2019-02-27T11:07:55.689Z,3.60
2019-02-27T11:10:25.028Z,3.85
2019-02-27T11:12:53.120Z,3.42
2019-02-27T11:15:22.769Z,3.20
2019-02-27T11:17:51.193Z,2.98
2019-02-27T11:20:21.173Z,3.40
2019-02-27T11:22:49.731Z,2.80
2019-02-27T11:25:23.884Z,2.62
2019-02-27T11:27:52.295Z,3.72
2019-02-27T11:30:21.531Z,2.90
2019-02-27T11:32:49.619Z,2.98
2019-02-27T11:35:18.032Z,2.77
2019-02-27T11:37:47.506Z,2.75
2019-02-27T11:40:21.572Z,3.80
2019-02-27T11:42:49.644Z,2.85
2019-02-27T11:45:23.747Z,3.10
2019-02-27T11:47:48.622Z,2.77
2019-02-27T11:50:20.204Z,2.22
2019-02-27T11:52:49.311Z,2.22
2019-02-27T11:55:24.393Z,2.67
2019-02-27T11:57:53.101Z,2.83
2019-02-27T12:00:26.260Z,2.77
2019-02-27T12:02:55.203Z,3.40
2019-02-27T12:05:23.742Z,2.40
2019-02-27T12:07:52.229Z,2.50
2019-02-27T12:10:28.744Z,3.45
2019-02-27T12:13:00.932Z,2.95
2019-02-27T12:15:27.366Z,2.72
2019-02-27T12:17:59.965Z,2.37
2019-02-27T12:20:26.133Z,2.65
2019-02-27T12:22:54.636Z,2.50
2019-02-27T12:25:26.867Z,2.65
2019-02-27T12:27:56.705Z,2.22
2019-02-27T12:30:27.358Z,2.30
2019-02-27T12:32:56.772Z,2.50
2019-02-27T12:35:35.671Z,2.10
2019-02-27T12:38:08.105Z,2.25
2019-02-27T12:40:35.414Z,2.65
2019-02-27T12:43:04.090Z,2.20
2019-02-27T12:45:32.775Z,2.22
2019-02-27T12:48:00.825Z,2.08
2019-02-27T12:50:31.385Z,2.35
2019-02-27T12:53:00.330Z,2.40
2019-02-27T12:55:29.045Z,2.37
2019-02-27T12:57:57.437Z,2.60
2019-02-27T13:00:33.838Z,2.12
2019-02-27T13:03:02.304Z,2.37
2019-02-27T13:05:31.052Z,2.33
2019-02-27T13:07:59.461Z,1.80
2019-02-27T13:10:33.009Z,1.87
2019-02-27T13:12:58.394Z,2.42
2019-02-27T13:15:29.227Z,2.25
2019-02-27T13:17:58.190Z,2.20
2019-02-27T13:20:33.864Z,2.30
2019-02-27T13:23:05.024Z,1.75
2019-02-27T13:25:32.465Z,2.25
2019-02-27T13:28:00.866Z,2.00
2019-02-27T13:30:29.716Z,1.30
2019-02-27T13:33:01.203Z,1.50
2019-02-27T13:35:28.938Z,1.10
2019-02-27T13:37:57.715Z,1.90
2019-02-27T13:40:27.551Z,1.30
2019-02-27T13:42:55.954Z,1.30
2019-02-27T13:45:32.067Z,1.62
2019-02-27T13:48:04.805Z,1.45
2019-02-27T13:50:30.612Z,1.70
2019-02-27T13:52:58.832Z,1.30
2019-02-27T13:55:27.325Z,1.80
2019-02-27T13:57:58.751Z,1.27
2019-02-27T14:00:28.657Z,1.20
2019-02-27T14:02:57.354Z,1.45
2019-02-27T14:05:25.712Z,1.25
2019-02-27T14:07:57.122Z,1.30
2019-02-27T14:10:29.365Z,1.25
2019-02-27T14:12:57.841Z,1.80
2019-02-27T14:15:27.212Z,2.00
2019-02-27T14:17:56.677Z,1.75
2019-02-27T14:20:26.931Z,1.45
2019-02-27T14:22:55.515Z,1.57
2019-02-27T14:25:29.857Z,1.82
2019-02-27T14:27:56.484Z,1.40
2019-02-27T14:30:37.402Z,1.30
2019-02-27T14:33:05.809Z,1.72
2019-02-27T14:35:36.344Z,1.60
2019-02-27T14:38:04.608Z,1.42
2019-02-27T14:40:37.647Z,1.62
2019-02-27T14:43:03.147Z,1.65
2019-02-27T14:45:31.226Z,1.95
2019-02-27T14:47:59.750Z,2.30
2019-02-27T14:50:33.561Z,1.45
2019-02-27T14:52:58.512Z,1.50
2019-02-27T14:55:26.921Z,1.67
2019-02-27T14:57:55.322Z,1.60
2019-02-27T15:00:28.812Z,1.72
2019-02-27T15:02:57.153Z,1.60
2019-02-27T15:05:25.904Z,1.65
2019-02-27T15:07:54.837Z,1.20
2019-02-27T15:10:24.109Z,1.55
2019-02-27T15:12:55.208Z,1.92
2019-02-27T15:15:28.044Z,1.30
2019-02-27T15:17:56.675Z,1.50
2019-02-27T15:20:27.044Z,1.40
2019-02-27T15:22:55.872Z,1.30
2019-02-27T15:25:24.624Z,1.45
2019-02-27T15:27:58.311Z,1.32
2019-02-27T15:30:24.160Z,1.40
2019-02-27T15:32:52.555Z,1.62
2019-02-27T15:35:22.135Z,1.50
2019-02-27T15:37:50.986Z,1.52
2019-02-27T15:40:20.324Z,1.45
2019-02-27T15:42:48.739Z,1.62
2019-02-27T15:45:21.480Z,1.85
2019-02-27T15:47:50.030Z,2.12
2019-02-27T15:50:29.841Z,1.65
2019-02-27T15:52:58.255Z,1.55
2019-02-27T15:55:26.677Z,1.60
2019-02-27T15:57:55.146Z,1.40
2019-02-27T16:00:24.779Z,1.52
2019-02-27T16:02:53.552Z,1.60
2019-02-27T16:05:22.425Z,1.37
2019-02-27T16:07:51.000Z,1.60
2019-02-27T16:10:24.190Z,1.50
2019-02-27T16:12:52.700Z,1.77
2019-02-27T16:15:22.647Z,1.10
2019-02-27T16:17:50.732Z,1.55
2019-02-27T16:20:20.686Z,1.55
2019-02-27T16:22:49.098Z,1.82
2019-02-27T16:25:26.626Z,2.15
2019-02-27T16:27:55.032Z,1.90
2019-02-27T16:30:32.311Z,2.02
2019-02-27T16:32:57.891Z,2.40
2019-02-27T16:35:26.357Z,2.15
2019-02-27T16:37:57.477Z,2.30
2019-02-27T16:40:27.104Z,2.30
2019-02-27T16:42:55.512Z,2.42
2019-02-27T16:45:37.656Z,2.37
2019-02-27T16:48:06.214Z,2.58
2019-02-27T16:50:34.285Z,2.10
2019-02-27T16:53:02.713Z,2.12
2019-02-27T16:55:36.051Z,2.40
2019-02-27T16:58:01.939Z,2.50
2019-02-27T17:00:35.615Z,1.70
2019-02-27T17:03:04.028Z,1.82
2019-02-27T17:05:32.497Z,1.82
2019-02-27T17:08:02.529Z,2.27
2019-02-27T17:10:31.470Z,2.00
2019-02-27T17:12:59.896Z,2.08
2019-02-27T17:15:47.629Z,2.33
2019-02-27T17:18:16.145Z,2.55
2019-02-27T17:20:46.546Z,1.87
2019-02-27T17:23:15.752Z,2.08
2019-02-27T17:25:44.151Z,4.55
2019-02-27T17:28:12.565Z,2.50
2019-02-27T17:30:40.636Z,3.70
2019-02-27T17:33:09.047Z,3.40
2019-02-27T17:35:37.444Z,2.33
2019-02-27T17:38:05.852Z,2.67
2019-02-27T17:40:36.922Z,2.20
2019-02-27T17:43:06.624Z,2.50
2019-02-27T17:45:35.032Z,2.60
2019-02-27T17:48:03.096Z,2.22
2019-02-27T17:50:32.364Z,2.35
2019-02-27T17:53:01.073Z,2.37
2019-02-27T17:55:29.483Z,2.83
2019-02-27T17:57:58.418Z,2.22
2019-02-27T18:00:32.538Z,2.70
2019-02-27T18:03:00.936Z,3.45
2019-02-27T18:05:29.348Z,2.90
2019-02-27T18:07:57.744Z,2.67
2019-02-27T18:10:26.172Z,2.40
2019-02-27T18:12:54.570Z,3.00
2019-02-27T18:15:24.345Z,2.05
2019-02-27T18:17:53.092Z,2.12
2019-02-27T18:20:24.152Z,2.17
2019-02-27T18:22:51.633Z,3.15
2019-02-27T18:25:20.164Z,3.15
2019-02-27T18:27:48.836Z,3.10
2019-02-27T18:30:22.409Z,2.85
2019-02-27T18:32:51.262Z,2.67
2019-02-27T18:35:20.234Z,2.50
2019-02-27T18:37:53.083Z,2.08
2019-02-27T18:40:20.424Z,2.70
2019-02-27T18:42:48.958Z,3.02
2019-02-27T18:45:19.763Z,2.50
2019-02-27T18:47:47.844Z,2.00
2019-02-27T18:50:16.976Z,1.40
2019-02-27T18:52:45.441Z,1.37
2019-02-27T18:55:15.383Z,1.37
2019-02-27T18:57:47.217Z,1.82
2019-02-27T19:00:21.979Z,1.95
2019-02-27T19:02:53.161Z,1.62
2019-02-27T19:05:22.232Z,1.87
2019-02-27T19:07:53.862Z,1.42
2019-02-27T19:10:21.203Z,1.65
2019-02-27T19:12:49.856Z,1.65
2019-02-27T19:15:26.151Z,1.82
2019-02-27T19:17:54.790Z,1.50
2019-02-27T19:20:26.300Z,1.70
2019-02-27T19:22:54.698Z,1.87
2019-02-27T19:25:23.435Z,1.98
2019-02-27T19:27:52.200Z,1.52
2019-02-27T19:30:20.780Z,1.45
2019-02-27T19:32:49.545Z,1.50
2019-02-27T19:35:21.152Z,1.70
2019-02-27T19:37:48.409Z,1.47
2019-02-27T19:40:21.168Z,1.47
2019-02-27T19:42:52.269Z,1.00
2019-02-27T19:45:20.843Z,1.35
2019-02-27T19:47:52.755Z,1.40
2019-02-27T19:50:19.068Z,1.57
2019-02-27T19:52:47.637Z,1.20
2019-02-27T19:55:15.787Z,1.40
2019-02-27T19:57:44.193Z,1.60
2019-02-27T20:00:15.916Z,1.25
2019-02-27T20:02:44.300Z,1.50
2019-02-27T20:05:13.263Z,1.77
2019-02-27T20:07:41.988Z,1.40
2019-02-27T20:10:13.291Z,1.65
2019-02-27T20:12:41.766Z,2.12
2019-02-27T20:15:13.304Z,2.10
2019-02-27T20:17:42.040Z,1.60
2019-02-27T20:20:13.145Z,1.62
2019-02-27T20:22:42.220Z,1.70
2019-02-27T20:25:13.727Z,1.77
2019-02-27T20:27:42.504Z,1.42
2019-02-27T20:30:14.910Z,1.30
2019-02-27T20:32:43.549Z,1.55
2019-02-27T20:35:12.982Z,1.30
2019-02-27T20:37:41.384Z,1.20
2019-02-27T20:40:15.337Z,1.32
2019-02-27T20:42:43.853Z,0.95
2019-02-27T20:45:14.818Z,1.57
2019-02-27T20:47:43.224Z,1.85
2019-02-27T20:50:20.892Z,2.08
2019-02-27T20:52:49.442Z,1.87
2019-02-27T20:55:17.395Z,1.70
2019-02-27T20:57:45.816Z,1.67
2019-02-27T21:00:16.448Z,1.65
2019-02-27T21:02:45.131Z,1.85
2019-02-27T21:05:14.103Z,1.30
2019-02-27T21:07:42.509Z,1.30
2019-02-27T21:10:20.860Z,1.70
2019-02-27T21:12:53.804Z,1.40
2019-02-27T21:15:17.235Z,1.30
2019-02-27T21:17:45.809Z,1.47
2019-02-27T21:20:14.398Z,1.30
2019-02-27T21:22:42.808Z,1.20
2019-02-27T21:25:14.902Z,1.32
2019-02-27T21:27:43.938Z,1.20
2019-02-27T21:30:18.924Z,1.40
2019-02-27T21:32:47.473Z,1.13
2019-02-27T21:35:16.033Z,1.10
2019-02-27T21:37:45.626Z,1.17
2019-02-27T21:40:18.126Z,1.15
2019-02-27T21:42:46.976Z,1.00
2019-02-27T21:45:24.587Z,1.20
2019-02-27T21:47:53.075Z,1.20
2019-02-27T21:50:25.656Z,1.07
2019-02-27T21:52:54.722Z,1.20
2019-02-27T21:55:24.525Z,1.23
2019-02-27T21:57:53.202Z,1.22
2019-02-27T22:00:27.635Z,1.17
2019-02-27T22:02:57.176Z,1.02
2019-02-27T22:05:25.825Z,0.90
2019-02-27T22:08:13.573Z,1.27
2019-02-27T22:10:41.971Z,0.83
2019-02-27T22:13:10.871Z,0.80
2019-02-27T22:15:39.190Z,0.90
2019-02-27T22:18:08.363Z,0.90
2019-02-27T22:20:37.705Z,0.90
2019-02-27T22:23:06.096Z,1.40
2019-02-27T22:25:34.499Z,0.73
2019-02-27T22:28:02.896Z,1.07
2019-02-27T22:30:31.979Z,0.97
2019-02-27T22:33:01.078Z,1.13
2019-02-27T22:35:30.397Z,1.10
2019-02-27T22:37:59.056Z,0.80
2019-02-27T22:40:27.465Z,1.15
2019-02-27T22:42:55.857Z,1.03
2019-02-27T22:45:23.937Z,0.70
2019-02-27T22:47:53.840Z,1.20
2019-02-27T22:50:22.485Z,1.20
2019-02-27T22:52:54.750Z,1.20
2019-02-27T22:55:21.288Z,1.00
2019-02-27T22:57:49.689Z,1.07
2019-02-27T23:00:56.493Z,0.90
2019-02-27T23:03:34.756Z,1.03
2019-02-27T23:06:03.737Z,0.80
2019-02-27T23:08:32.316Z,0.83
2019-02-27T23:11:02.965Z,1.00
2019-02-27T23:13:31.012Z,0.70
2019-02-27T23:15:59.416Z,0.70
2019-02-27T23:18:27.805Z,0.70
2019-02-27T23:20:56.280Z,0.87
2019-02-27T23:23:24.756Z,0.83
2019-02-27T23:25:53.262Z,1.10
2019-02-27T23:28:21.660Z,0.70
2019-02-27T23:30:50.065Z,0.67
2019-02-27T23:33:18.632Z,0.70
2019-02-27T23:35:47.316Z,0.70
2019-02-27T23:38:17.144Z,0.80
2019-02-27T23:40:49.039Z,0.50
2019-02-27T23:43:15.678Z,0.70
2019-02-27T23:45:44.477Z,0.63
2019-02-27T23:48:13.594Z,0.80
2019-02-27T23:50:42.605Z,0.70
2019-02-27T23:53:11.450Z,0.40
2019-02-27T23:55:44.142Z,0.60
2019-02-27T23:58:09.656Z,0.50
